Time;durP1;ratioP1;P1;durP2;ratioP2;P2;SDS_P1;SDS_P2;PMS_P1;PMS_P2;Temp;Humidity;BMP_temperature;BMP_pressure;BME280_temperature;BME280_humidity;BME280_pressure;Samples;Min_cycle;Max_cycle;Signal;HPM_P1;HPM_P2
2020/12/16 00:01:55;;;;;;;3.30;1.60;;;9.00;73.70;;;;;;2223258;55;21476;-74
2020/12/16 00:04:22;;;;;;;2.92;1.33;;;9.00;73.60;;;;;;2453070;55;20928;-73
2020/12/16 00:06:49;;;;;;;3.72;1.37;;;9.00;73.70;;;;;;2448650;56;21087;-74
2020/12/16 00:09:18;;;;;;;2.47;1.23;;;9.00;73.60;;;;;;2456402;55;20957;-74
2020/12/16 00:11:53;;;;;;;2.65;1.35;;;9.00;73.60;;;;;;2228208;55;20972;-74
2020/12/16 00:14:23;;;;;;;2.53;1.25;;;9.00;73.40;;;;;;2419519;55;21025;-73
2020/12/16 00:16:53;;;;;;;3.00;1.40;;;9.00;73.30;;;;;;2235778;56;21042;-75
2020/12/16 00:19:20;;;;;;;2.80;1.37;;;9.00;73.20;;;;;;2419371;56;21056;-74
2020/12/16 00:21:47;;;;;;;3.35;1.42;;;8.90;73.10;;;;;;2453926;56;20998;-74
2020/12/16 00:24:14;;;;;;;2.90;1.48;;;8.90;73.30;;;;;;2229668;56;21065;-74
2020/12/16 00:26:42;;;;;;;2.87;1.37;;;8.90;73.40;;;;;;2447317;56;21444;-75
2020/12/16 00:29:10;;;;;;;3.10;1.23;;;8.90;73.60;;;;;;2445154;55;21473;-74
2020/12/16 00:31:38;;;;;;;3.10;1.40;;;8.90;73.60;;;;;;2441093;55;20985;-74
2020/12/16 00:34:06;;;;;;;2.53;1.10;;;8.90;73.50;;;;;;2440833;55;21046;-74
2020/12/16 00:36:39;;;;;;;2.50;1.10;;;8.90;73.50;;;;;;2451818;56;21455;-75
2020/12/16 00:39:08;;;;;;;2.75;1.35;;;8.90;73.50;;;;;;2224103;55;20990;-74
2020/12/16 00:41:35;;;;;;;2.42;1.15;;;8.90;73.50;;;;;;2231350;55;21503;-74
2020/12/16 00:44:06;;;;;;;3.40;1.35;;;8.90;73.60;;;;;;2453266;55;21967;-74
2020/12/16 00:46:33;;;;;;;3.97;1.87;;;8.90;73.80;;;;;;2461211;55;20945;-74
2020/12/16 00:49:03;;;;;;;3.40;1.40;;;8.90;74.00;;;;;;2225444;56;21015;-74
2020/12/16 00:51:30;;;;;;;2.75;1.12;;;8.90;74.10;;;;;;2229947;55;20975;-74
2020/12/16 00:53:59;;;;;;;3.58;1.83;;;8.90;74.10;;;;;;2457105;55;21402;-75
2020/12/16 00:56:26;;;;;;;2.70;1.35;;;8.90;74.20;;;;;;2216902;56;20943;-75
2020/12/16 00:58:56;;;;;;;2.65;1.33;;;8.90;74.20;;;;;;2424104;56;20960;-74
2020/12/16 01:01:24;;;;;;;2.80;1.20;;;9.00;74.40;;;;;;2205163;56;21025;-74
2020/12/16 01:03:53;;;;;;;2.60;1.30;;;9.00;74.30;;;;;;2196006;57;20976;-74
2020/12/16 01:06:20;;;;;;;2.50;1.25;;;9.00;74.20;;;;;;2216186;56;20940;-73
2020/12/16 01:08:47;;;;;;;2.78;1.17;;;9.00;74.20;;;;;;2425346;56;20986;-75
2020/12/16 01:11:17;;;;;;;2.80;1.50;;;9.00;74.20;;;;;;2423370;56;21105;-74
2020/12/16 01:13:44;;;;;;;3.17;1.35;;;9.00;74.30;;;;;;2207168;56;21045;-74
2020/12/16 01:16:19;;;;;;;2.87;1.30;;;9.00;74.40;;;;;;2210537;56;20963;-75
2020/12/16 01:18:48;;;;;;;3.40;1.60;;;9.10;74.60;;;;;;2205838;56;21532;-74
2020/12/16 01:21:20;;;;;;;5.05;2.17;;;9.00;74.60;;;;;;2209872;56;21067;-74
2020/12/16 01:23:47;;;;;;;3.75;2.03;;;9.10;74.80;;;;;;2213660;56;21036;-74
2020/12/16 01:26:14;;;;;;;3.55;1.87;;;9.10;74.90;;;;;;2206645;55;21012;-74
2020/12/16 01:28:41;;;;;;;5.35;2.17;;;9.10;74.90;;;;;;2210478;55;21118;-74
2020/12/16 01:31:09;;;;;;;3.28;1.80;;;9.20;75.70;;;;;;2425086;56;20959;-74
2020/12/16 01:33:36;;;;;;;3.35;1.50;;;9.20;75.00;;;;;;2428308;56;21031;-74
2020/12/16 01:36:03;;;;;;;3.22;1.45;;;9.20;74.90;;;;;;2424921;56;21017;-74
2020/12/16 01:38:34;;;;;;;3.45;1.90;;;9.20;74.80;;;;;;2424583;56;21045;-74
2020/12/16 01:41:09;;;;;;;3.50;1.58;;;9.20;74.70;;;;;;2204779;56;21004;-74
2020/12/16 01:43:38;;;;;;;3.45;1.62;;;9.30;74.70;;;;;;2422647;56;20976;-74
2020/12/16 01:46:07;;;;;;;2.85;1.35;;;9.30;74.70;;;;;;2423064;56;21029;-75
2020/12/16 01:48:35;;;;;;;5.68;1.70;;;9.30;74.80;;;;;;2205004;56;21537;-74
2020/12/16 01:51:02;;;;;;;2.78;1.60;;;9.30;74.90;;;;;;2422894;56;21547;-74
2020/12/16 01:53:31;;;;;;;4.25;1.40;;;9.30;74.90;;;;;;2207607;56;21878;-74
2020/12/16 01:55:58;;;;;;;4.25;1.80;;;9.30;75.00;;;;;;2441640;55;21504;-74
2020/12/16 01:58:24;;;;;;;2.90;1.60;;;9.40;75.00;;;;;;2228140;55;20979;-73
2020/12/16 02:00:52;;;;;;;2.92;1.52;;;9.40;75.00;;;;;;2226262;55;21158;-74
2020/12/16 02:03:21;;;;;;;4.15;1.70;;;9.20;74.60;;;;;;2445693;55;20935;-74
2020/12/16 02:05:48;;;;;;;3.20;1.50;;;9.40;74.70;;;;;;2237973;55;21138;-75
2020/12/16 02:08:18;;;;;;;3.40;1.70;;;9.50;74.80;;;;;;2223052;55;21099;-75
2020/12/16 02:10:45;;;;;;;3.47;1.73;;;9.50;74.70;;;;;;2239186;56;21000;-74
2020/12/16 02:13:12;;;;;;;3.42;1.73;;;9.50;74.60;;;;;;2443843;56;21053;-75
2020/12/16 02:15:39;;;;;;;3.15;1.55;;;9.50;74.50;;;;;;2445409;55;20979;-74
2020/12/16 02:18:06;;;;;;;3.47;1.60;;;9.50;74.30;;;;;;2453896;55;20992;-74
2020/12/16 02:20:33;;;;;;;3.05;1.60;;;9.50;74.30;;;;;;2439020;55;22371;-74
2020/12/16 02:23:07;;;;;;;3.08;1.35;;;9.50;74.30;;;;;;2415484;56;20944;-74
2020/12/16 02:25:34;;;;;;;3.05;1.60;;;9.50;74.20;;;;;;2212904;56;21554;-75
2020/12/16 02:28:01;;;;;;;3.58;1.92;;;9.50;74.00;;;;;;2441969;55;21030;-74
2020/12/16 02:30:29;;;;;;;3.08;1.58;;;9.50;73.90;;;;;;2444384;55;20969;-75
2020/12/16 02:33:05;;;;;;;3.50;1.67;;;9.50;74.10;;;;;;2239528;55;21024;-75
2020/12/16 02:35:32;;;;;;;3.53;1.73;;;9.50;74.20;;;;;;2230728;55;20982;-74
2020/12/16 02:38:01;;;;;;;2.87;1.48;;;9.50;74.20;;;;;;2441959;55;20974;-75
2020/12/16 02:40:29;;;;;;;2.30;1.05;;;9.50;74.40;;;;;;2441862;55;20983;-74
2020/12/16 02:42:59;;;;;;;3.40;1.50;;;9.50;74.50;;;;;;2459838;55;20980;-75
2020/12/16 02:45:26;;;;;;;3.15;1.60;;;9.50;74.60;;;;;;2236919;56;20970;-73
2020/12/16 02:47:53;;;;;;;5.15;1.45;;;9.50;74.70;;;;;;2461245;55;21017;-74
2020/12/16 02:50:26;;;;;;;3.22;1.70;;;9.60;74.90;;;;;;2236501;55;21007;-75
2020/12/16 02:52:52;;;;;;;2.58;1.33;;;9.60;74.90;;;;;;2441797;55;21572;-75
2020/12/16 02:55:22;;;;;;;3.08;1.65;;;9.60;74.70;;;;;;2441558;55;21003;-74
2020/12/16 02:57:49;;;;;;;3.20;1.52;;;9.60;74.60;;;;;;2230859;55;21395;-75
2020/12/16 03:00:15;;;;;;;2.75;1.45;;;9.60;74.50;;;;;;2228033;55;20994;-74
2020/12/16 03:02:47;;;;;;;3.75;1.67;;;9.60;74.50;;;;;;2444097;55;20977;-74
2020/12/16 03:05:17;;;;;;;3.15;1.67;;;9.70;74.50;;;;;;2447781;56;20978;-74
2020/12/16 03:07:44;;;;;;;2.92;1.52;;;9.70;74.50;;;;;;2456759;55;20980;-75
2020/12/16 03:10:11;;;;;;;3.00;1.65;;;9.70;74.60;;;;;;2242412;56;21861;-76
2020/12/16 03:12:41;;;;;;;3.45;1.77;;;9.70;74.70;;;;;;2444840;55;21023;-74
2020/12/16 03:15:08;;;;;;;3.65;2.00;;;9.70;74.70;;;;;;2453335;55;20975;-75
2020/12/16 03:17:38;;;;;;;3.50;2.10;;;9.70;74.80;;;;;;2205847;57;21001;-74
2020/12/16 03:20:04;;;;;;;3.37;1.58;;;9.80;75.00;;;;;;2228084;56;21003;-74
2020/12/16 03:22:32;;;;;;;3.17;1.60;;;9.70;74.90;;;;;;2459591;55;21036;-74
2020/12/16 03:25:02;;;;;;;2.78;1.33;;;9.80;75.00;;;;;;2455302;55;21031;-75
2020/12/16 03:27:32;;;;;;;3.10;1.62;;;9.80;75.00;;;;;;2443042;55;21789;-74
2020/12/16 03:30:02;;;;;;;2.28;1.15;;;9.80;75.00;;;;;;2237782;55;20945;-75
2020/12/16 03:32:30;;;;;;;3.03;1.30;;;9.90;75.00;;;;;;2237519;56;21524;-75
2020/12/16 03:34:56;;;;;;;2.83;1.40;;;9.90;75.10;;;;;;2449412;55;21018;-74
2020/12/16 03:37:23;;;;;;;3.55;1.65;;;9.90;75.10;;;;;;2449214;55;20995;-75
2020/12/16 03:39:50;;;;;;;2.70;1.42;;;9.90;75.10;;;;;;2228441;55;21423;-74
2020/12/16 03:42:17;;;;;;;3.30;1.30;;;9.90;75.10;;;;;;2231535;55;21058;-75
2020/12/16 03:44:44;;;;;;;2.62;1.30;;;10.00;74.00;;;;;;2227762;55;21032;-75
2020/12/16 03:47:11;;;;;;;2.70;1.30;;;10.00;73.90;;;;;;2238851;56;21037;-75
2020/12/16 03:49:37;;;;;;;2.65;1.40;;;9.90;74.80;;;;;;2457523;55;21821;-75
2020/12/16 03:52:08;;;;;;;2.53;1.27;;;10.00;73.90;;;;;;2448400;56;21096;-74
2020/12/16 03:54:40;;;;;;;2.30;1.00;;;10.00;73.90;;;;;;2458635;55;21058;-75
2020/12/16 03:57:08;;;;;;;2.80;1.35;;;10.10;74.00;;;;;;2223015;55;20981;-75
2020/12/16 03:59:34;;;;;;;2.42;1.20;;;10.10;74.00;;;;;;2451221;55;21517;-75
2020/12/16 04:02:04;;;;;;;2.80;1.15;;;10.10;74.10;;;;;;2459501;55;20965;-75
2020/12/16 04:04:34;;;;;;;2.42;1.12;;;10.10;74.10;;;;;;2232758;56;20966;-74
2020/12/16 04:07:00;;;;;;;2.80;1.27;;;10.20;74.20;;;;;;2454544;55;20952;-74
2020/12/16 04:09:31;;;;;;;2.40;1.12;;;10.20;74.10;;;;;;2451563;56;20978;-75
2020/12/16 04:11:58;;;;;;;2.05;0.93;;;10.20;74.10;;;;;;2454579;56;20980;-75
2020/12/16 04:14:25;;;;;;;2.90;1.30;;;10.20;74.00;;;;;;2461645;55;20951;-75
2020/12/16 04:16:56;;;;;;;2.95;1.30;;;10.20;74.00;;;;;;2444522;56;20991;-75
2020/12/16 04:19:23;;;;;;;2.53;1.12;;;10.20;73.90;;;;;;2457520;55;21092;-75
2020/12/16 04:21:55;;;;;;;2.28;1.00;;;10.30;74.00;;;;;;2223286;55;21050;-75
2020/12/16 04:24:23;;;;;;;2.28;1.27;;;10.30;74.00;;;;;;2441320;55;21036;-75
2020/12/16 04:26:55;;;;;;;2.40;1.17;;;10.30;74.00;;;;;;2455855;55;21076;-75
2020/12/16 04:29:22;;;;;;;2.62;1.23;;;10.30;73.90;;;;;;2237183;55;20987;-75
2020/12/16 04:31:54;;;;;;;3.08;0.90;;;10.30;73.90;;;;;;2230771;55;21020;-74
2020/12/16 04:34:23;;;;;;;2.00;1.00;;;10.40;74.00;;;;;;2416763;56;21003;-74
2020/12/16 04:36:51;;;;;;;2.40;1.23;;;10.40;74.00;;;;;;2419428;56;20953;-75
2020/12/16 04:39:18;;;;;;;2.33;1.00;;;10.40;74.00;;;;;;2440964;55;20967;-74
2020/12/16 04:41:49;;;;;;;3.05;1.23;;;10.40;74.00;;;;;;2453030;55;21043;-74
2020/12/16 04:44:16;;;;;;;2.17;1.00;;;10.40;73.90;;;;;;2226950;56;21030;-75
2020/12/16 04:46:48;;;;;;;2.67;1.30;;;10.50;73.90;;;;;;2446950;55;21070;-74
2020/12/16 04:49:20;;;;;;;2.50;1.30;;;10.50;74.60;;;;;;2237501;56;21799;-75
2020/12/16 04:51:49;;;;;;;2.50;1.17;;;10.50;73.80;;;;;;2417876;55;20960;-74
2020/12/16 04:54:16;;;;;;;2.35;1.20;;;10.50;73.80;;;;;;2455376;55;21482;-75
2020/12/16 04:56:44;;;;;;;2.70;1.12;;;10.50;73.60;;;;;;2444720;54;21000;-75
2020/12/16 04:59:16;;;;;;;3.00;1.60;;;10.50;73.50;;;;;;2227868;55;20986;-75
2020/12/16 05:01:43;;;;;;;3.17;1.37;;;10.50;73.30;;;;;;2441723;55;21038;-75
2020/12/16 05:04:11;;;;;;;3.03;1.37;;;10.50;73.10;;;;;;2448756;56;21620;-74
2020/12/16 05:06:40;;;;;;;2.90;1.27;;;10.50;73.10;;;;;;2439561;55;21558;-74
2020/12/16 05:09:12;;;;;;;2.67;1.42;;;10.50;73.00;;;;;;2216794;57;21626;-74
2020/12/16 05:11:53;;;;;;;3.17;1.40;;;10.40;72.90;;;;;;2414184;56;21015;-75
2020/12/16 05:14:21;;;;;;;2.90;1.50;;;10.40;72.90;;;;;;2417248;56;21094;-75
2020/12/16 05:17:04;;;;;;;3.72;2.25;;;10.40;72.90;;;;;;2230199;55;21013;-75
2020/12/16 05:20:14;;;;;;;3.30;0.98;;;10.40;72.90;;;;;;2434356;55;21032;-75
2020/12/16 05:22:45;;;;;;;3.08;1.27;;;10.40;72.60;;;;;;2227079;55;20983;-74
2020/12/16 05:25:18;;;;;;;3.28;1.40;;;10.40;72.60;;;;;;2207181;55;21499;-74
2020/12/16 05:27:48;;;;;;;2.50;1.15;;;10.40;72.50;;;;;;2441119;56;21434;-75
2020/12/16 05:30:19;;;;;;;2.47;1.08;;;10.40;72.50;;;;;;2445622;55;25531;-74
2020/12/16 05:32:46;;;;;;;2.30;1.00;;;10.30;72.40;;;;;;2459687;55;21005;-74
2020/12/16 05:35:28;;;;;;;2.72;1.15;;;10.30;72.30;;;;;;2445756;55;21938;-75
2020/12/16 05:38:10;;;;;;;2.05;1.02;;;10.30;72.20;;;;;;2210853;56;20986;-74
2020/12/16 05:40:41;;;;;;;2.72;1.25;;;10.30;72.00;;;;;;2454582;55;21000;-75
2020/12/16 05:43:08;;;;;;;2.47;1.23;;;10.20;71.90;;;;;;2236848;55;21021;-74
2020/12/16 05:45:39;;;;;;;3.28;1.67;;;10.20;71.60;;;;;;2228805;56;20979;-74
2020/12/16 05:48:10;;;;;;;2.80;1.52;;;10.20;71.50;;;;;;2457382;55;21008;-74
2020/12/16 05:50:51;;;;;;;2.80;1.42;;;10.10;71.40;;;;;;2459830;55;20989;-75
2020/12/16 05:53:24;;;;;;;3.20;1.87;;;10.10;71.30;;;;;;2445551;55;22045;-75
2020/12/16 05:55:59;;;;;;;3.70;2.30;;;10.00;71.40;;;;;;2444324;55;20998;-74
2020/12/16 05:58:30;;;;;;;4.60;2.80;;;10.00;71.40;;;;;;2441891;55;21535;-74
2020/12/16 06:01:04;;;;;;;4.53;2.73;;;10.00;71.20;;;;;;2447762;55;21303;-74
2020/12/16 06:03:38;;;;;;;4.87;2.60;;;9.90;72.30;;;;;;2441208;56;20999;-75
2020/12/16 06:06:24;;;;;;;3.47;2.20;;;9.90;72.40;;;;;;2442378;55;21075;-75
2020/12/16 06:08:51;;;;;;;4.85;2.62;;;9.80;72.30;;;;;;2449363;55;21680;-74
2020/12/16 06:11:18;;;;;;;3.75;2.12;;;9.80;72.50;;;;;;2446009;55;21071;-74
2020/12/16 06:13:48;;;;;;;3.90;2.15;;;9.80;72.80;;;;;;2455988;55;21115;-74
2020/12/16 06:16:15;;;;;;;4.80;2.97;;;9.70;73.00;;;;;;2448667;55;21481;-74
2020/12/16 06:18:44;;;;;;;4.45;2.78;;;9.70;73.20;;;;;;2459882;55;21003;-74
2020/12/16 06:21:14;;;;;;;6.53;3.33;;;9.70;73.50;;;;;;2232825;56;21648;-75
2020/12/16 06:23:45;;;;;;;6.65;2.97;;;9.70;73.60;;;;;;2224369;55;20969;-74
2020/12/16 06:26:22;;;;;;;11.38;3.22;;;9.70;73.80;;;;;;2238598;55;20993;-74
2020/12/16 06:28:52;;;;;;;6.37;2.55;;;9.70;73.90;;;;;;2442607;56;21015;-74
2020/12/16 06:31:29;;;;;;;7.43;3.47;;;9.70;73.90;;;;;;2449645;56;21086;-74
2020/12/16 06:34:03;;;;;;;8.85;3.95;;;9.70;74.00;;;;;;2442045;55;21051;-74
2020/12/16 06:36:42;;;;;;;10.18;4.78;;;9.70;74.10;;;;;;2235108;56;20958;-74
2020/12/16 06:39:23;;;;;;;6.40;3.87;;;9.70;74.10;;;;;;2444957;55;20987;-74
2020/12/16 06:41:54;;;;;;;7.05;4.37;;;9.70;74.10;;;;;;2228963;55;21206;-74
2020/12/16 06:44:22;;;;;;;6.10;4.07;;;9.70;74.10;;;;;;2453135;55;21079;-74
2020/12/16 06:46:53;;;;;;;7.97;3.37;;;9.80;74.20;;;;;;2228513;55;21477;-74
2020/12/16 06:49:27;;;;;;;14.23;3.58;;;9.70;74.20;;;;;;2460780;55;21025;-74
2020/12/16 06:52:07;;;;;;;7.28;3.65;;;9.80;74.10;;;;;;2232424;56;21083;-74
2020/12/16 06:54:44;;;;;;;9.57;3.90;;;9.80;74.00;;;;;;2446445;55;21007;-75
2020/12/16 06:57:21;;;;;;;6.60;3.65;;;9.80;73.90;;;;;;2227523;55;21365;-74
2020/12/16 07:00:17;;;;;;;9.15;3.80;;;9.80;73.90;;;;;;2234025;56;21543;-74
2020/12/16 07:02:44;;;;;;;6.30;3.62;;;9.80;73.90;;;;;;2228287;55;20997;-74
2020/12/16 07:05:42;;;;;;;5.93;3.25;;;9.80;74.10;;;;;;2440274;55;20987;-74
2020/12/16 07:08:12;;;;;;;6.40;4.05;;;9.80;74.00;;;;;;2455878;55;21005;-74
2020/12/16 07:10:41;;;;;;;6.30;3.60;;;9.80;74.20;;;;;;2241054;56;21754;-75
2020/12/16 07:13:33;;;;;;;8.65;3.42;;;9.80;74.30;;;;;;2412534;56;21562;-75
2020/12/16 07:16:09;;;;;;;5.80;3.17;;;9.80;74.20;;;;;;2454008;55;22433;-74
2020/12/16 07:18:51;;;;;;;5.93;3.62;;;9.80;74.30;;;;;;2226597;56;20967;-74
2020/12/16 07:21:24;;;;;;;5.60;3.15;;;9.80;74.30;;;;;;2452986;55;21005;-74
2020/12/16 07:24:05;;;;;;;6.03;3.92;;;9.80;74.40;;;;;;2445190;56;21033;-74
2020/12/16 07:26:57;;;;;;;6.03;3.55;;;9.80;74.40;;;;;;2444302;55;20992;-74
2020/12/16 07:29:32;;;;;;;5.75;3.85;;;9.90;74.50;;;;;;2442670;55;20982;-74
2020/12/16 07:32:11;;;;;;;6.55;4.37;;;9.90;74.40;;;;;;2454032;55;21385;-74
2020/12/16 07:34:59;;;;;;;5.93;3.67;;;9.90;74.30;;;;;;2440145;55;20983;-74
2020/12/16 07:37:30;;;;;;;5.20;3.37;;;9.90;74.00;;;;;;2449457;55;20992;-74
2020/12/16 07:40:00;;;;;;;5.35;3.03;;;9.90;74.10;;;;;;2454032;55;20992;-74
2020/12/16 07:42:33;;;;;;;6.18;3.80;;;9.70;74.00;;;;;;2225839;56;21504;-75
2020/12/16 07:45:07;;;;;;;7.15;4.47;;;9.90;74.20;;;;;;2460833;55;20944;-74
2020/12/16 07:47:35;;;;;;;5.25;3.17;;;9.90;74.30;;;;;;2228153;55;21034;-75
2020/12/16 07:50:10;;;;;;;4.80;3.12;;;9.90;74.30;;;;;;2222434;55;21486;-74
2020/12/16 07:52:38;;;;;;;5.25;3.10;;;9.90;74.30;;;;;;2443552;55;20979;-74
2020/12/16 07:55:08;;;;;;;6.32;4.07;;;9.90;74.30;;;;;;2449503;56;20987;-74
2020/12/16 07:57:36;;;;;;;6.97;4.10;;;9.90;74.30;;;;;;2440151;55;21046;-74
2020/12/16 08:00:10;;;;;;;6.12;3.83;;;9.90;74.30;;;;;;2236472;56;21000;-74
2020/12/16 08:02:49;;;;;;;5.07;2.95;;;9.90;74.00;;;;;;2452086;55;21094;-74
2020/12/16 08:05:15;;;;;;;6.15;3.15;;;10.00;72.80;;;;;;2233126;55;21977;-74
2020/12/16 08:07:46;;;;;;;5.80;3.67;;;9.90;73.60;;;;;;2205471;56;20988;-74
2020/12/16 08:10:13;;;;;;;6.12;3.72;;;9.90;73.50;;;;;;2440855;56;20979;-75
2020/12/16 08:12:41;;;;;;;6.03;3.78;;;9.90;73.40;;;;;;2226001;56;21349;-75
2020/12/16 08:15:18;;;;;;;8.00;4.85;;;9.90;73.40;;;;;;2237666;55;21047;-74
2020/12/16 08:17:55;;;;;;;6.30;4.07;;;9.90;73.40;;;;;;2226547;56;21568;-74
2020/12/16 08:20:25;;;;;;;7.05;4.47;;;9.90;73.60;;;;;;2452321;55;20999;-75
2020/12/16 08:22:57;;;;;;;6.65;4.35;;;9.90;73.80;;;;;;2440937;55;20984;-74
2020/12/16 08:25:24;;;;;;;6.12;4.25;;;9.90;74.10;;;;;;2237281;56;21020;-75
2020/12/16 08:28:05;;;;;;;8.10;5.07;;;9.90;74.30;;;;;;2460246;55;21033;-74
2020/12/16 08:30:34;;;;;;;8.10;5.60;;;9.90;74.60;;;;;;2455116;55;21035;-74
2020/12/16 08:33:13;;;;;;;9.68;6.28;;;9.90;74.80;;;;;;2445567;55;20991;-75
2020/12/16 08:36:18;;;;;;;7.78;5.37;;;9.90;75.00;;;;;;2444467;55;20956;-74
2020/12/16 08:38:44;;;;;;;8.05;5.93;;;10.00;74.00;;;;;;2441033;55;22087;-74
2020/12/16 08:41:24;;;;;;;11.73;8.00;;;10.10;74.40;;;;;;2228255;55;21093;-75
2020/12/16 08:43:52;;;;;;;10.13;6.80;;;10.10;74.50;;;;;;2452740;55;20997;-74
2020/12/16 08:46:24;;;;;;;9.30;6.55;;;10.10;74.60;;;;;;2461080;55;20989;-74
2020/12/16 08:49:01;;;;;;;10.80;6.95;;;10.20;74.90;;;;;;2460457;55;20989;-74
2020/12/16 08:51:47;;;;;;;10.48;6.72;;;10.20;75.00;;;;;;2226703;56;21035;-74
2020/12/16 08:54:22;;;;;;;8.38;5.78;;;10.30;75.20;;;;;;2446038;56;20943;-75
2020/12/16 08:57:01;;;;;;;8.35;6.00;;;10.40;75.60;;;;;;2415837;56;21107;-75
2020/12/16 08:59:39;;;;;;;9.70;6.93;;;10.50;75.90;;;;;;2229732;56;20970;-74
2020/12/16 09:02:07;;;;;;;10.68;7.75;;;10.50;76.00;;;;;;2446606;56;21083;-75
2020/12/16 09:04:44;;;;;;;8.50;5.95;;;10.60;76.20;;;;;;2457639;56;20945;-75
2020/12/16 09:07:24;;;;;;;7.55;5.07;;;10.70;76.20;;;;;;2236858;56;21548;-74
2020/12/16 09:09:57;;;;;;;7.32;5.35;;;10.80;76.00;;;;;;2412441;55;21033;-75
2020/12/16 09:12:25;;;;;;;5.85;4.28;;;10.80;75.80;;;;;;2430131;55;21413;-75
2020/12/16 09:15:02;;;;;;;7.53;5.00;;;10.90;75.60;;;;;;2452273;55;20991;-75
2020/12/16 09:17:31;;;;;;;6.57;5.03;;;11.00;75.60;;;;;;2453091;55;21036;-75
2020/12/16 09:20:10;;;;;;;7.30;4.95;;;11.00;75.60;;;;;;2237350;56;21335;-75
2020/12/16 09:22:37;;;;;;;7.68;5.78;;;11.10;75.80;;;;;;2454636;55;21472;-75
2020/12/16 09:25:04;;;;;;;7.60;4.85;;;11.00;75.70;;;;;;2232411;55;21385;-75
2020/12/16 09:27:34;;;;;;;6.37;4.55;;;11.20;76.00;;;;;;2440210;55;20982;-75
2020/12/16 09:30:06;;;;;;;7.10;4.65;;;11.20;76.10;;;;;;2234946;55;21056;-74
2020/12/16 09:32:33;;;;;;;7.03;4.37;;;11.30;76.20;;;;;;2447174;55;21026;-75
2020/12/16 09:35:10;;;;;;;5.90;4.05;;;11.40;76.20;;;;;;2457956;56;21561;-74
2020/12/16 09:37:37;;;;;;;5.75;4.20;;;11.40;76.10;;;;;;2228290;55;21471;-75
2020/12/16 09:40:11;;;;;;;6.40;3.92;;;11.50;76.00;;;;;;2457537;55;21001;-75
2020/12/16 09:42:38;;;;;;;6.90;3.83;;;11.50;76.50;;;;;;2236972;55;21076;-75
2020/12/16 09:45:19;;;;;;;5.97;3.97;;;11.60;75.90;;;;;;2448199;56;20956;-75
2020/12/16 09:47:49;;;;;;;6.25;4.25;;;11.60;75.70;;;;;;2441704;55;21035;-75
2020/12/16 09:50:16;;;;;;;6.22;4.05;;;11.70;75.80;;;;;;2444923;55;21068;-75
2020/12/16 09:52:45;;;;;;;7.10;4.28;;;11.70;75.70;;;;;;2224397;56;21496;-74
2020/12/16 09:55:20;;;;;;;6.82;4.10;;;11.70;75.60;;;;;;2228707;55;21042;-75
2020/12/16 09:59:40;;;;;;;6.20;3.15;;;11.80;75.60;;;;;;2234366;55;21044;-74
2020/12/16 10:02:10;;;;;;;5.20;3.08;;;11.90;75.20;;;;;;2447883;55;21496;-75
2020/12/16 10:04:41;;;;;;;5.47;3.55;;;11.90;75.60;;;;;;2437377;55;22101;-74
2020/12/16 10:07:08;;;;;;;5.90;3.83;;;11.90;75.60;;;;;;2437461;55;20999;-75
2020/12/16 10:09:52;;;;;;;6.15;4.30;;;12.00;75.80;;;;;;2221893;55;20970;-74
2020/12/16 10:12:23;;;;;;;5.75;4.00;;;12.00;75.70;;;;;;2435564;55;21058;-75
2020/12/16 10:15:09;;;;;;;6.45;3.85;;;12.00;75.70;;;;;;2448852;56;21533;-75
2020/12/16 10:17:40;;;;;;;6.05;4.10;;;12.10;75.60;;;;;;2218777;56;21000;-75
2020/12/16 10:20:07;;;;;;;6.35;4.50;;;12.10;75.60;;;;;;2442071;56;20994;-75
2020/12/16 10:22:40;;;;;;;6.20;4.25;;;12.20;75.70;;;;;;2216177;55;21025;-74
2020/12/16 10:25:08;;;;;;;7.03;4.82;;;12.20;75.70;;;;;;2435669;55;21095;-74
2020/12/16 10:27:37;;;;;;;7.28;5.28;;;12.20;75.60;;;;;;2434066;55;20991;-74
2020/12/16 10:30:07;;;;;;;7.50;5.28;;;12.30;75.60;;;;;;2434371;55;21780;-74
2020/12/16 10:32:39;;;;;;;9.25;6.22;;;12.30;75.70;;;;;;2452026;55;21060;-75
2020/12/16 10:35:07;;;;;;;13.10;6.28;;;12.40;76.00;;;;;;2237370;55;21905;-75
2020/12/16 10:37:40;;;;;;;9.18;6.22;;;12.40;76.30;;;;;;2429275;55;20987;-74
2020/12/16 10:40:14;;;;;;;10.27;6.07;;;12.50;76.90;;;;;;2439763;55;20952;-75
2020/12/16 10:42:41;;;;;;;7.70;5.28;;;12.60;77.10;;;;;;2443447;55;20996;-74
2020/12/16 10:45:10;;;;;;;8.65;6.20;;;12.70;77.20;;;;;;2442844;56;21075;-74
2020/12/16 10:47:42;;;;;;;8.88;6.40;;;12.80;77.00;;;;;;2234340;56;21610;-74
2020/12/16 10:50:14;;;;;;;9.43;6.43;;;12.90;76.60;;;;;;2439503;55;20990;-74
2020/12/16 10:52:44;;;;;;;7.37;5.47;;;12.90;76.20;;;;;;2440992;55;21020;-74
2020/12/16 10:55:13;;;;;;;7.28;5.18;;;13.00;76.30;;;;;;2440963;55;21190;-75
2020/12/16 10:57:40;;;;;;;9.85;4.97;;;13.00;76.10;;;;;;2447248;56;20992;-74
2020/12/16 11:00:07;;;;;;;8.48;5.45;;;13.10;76.30;;;;;;2446358;55;20987;-74
2020/12/16 11:02:36;;;;;;;9.23;5.82;;;13.10;76.40;;;;;;2442098;55;20983;-74
2020/12/16 11:05:11;;;;;;;12.30;7.03;;;13.20;76.40;;;;;;2224916;55;21575;-74
2020/12/16 11:07:38;;;;;;;10.52;5.97;;;13.20;76.10;;;;;;2417283;56;20987;-75
2020/12/16 11:10:11;;;;;;;11.00;6.22;;;13.30;76.30;;;;;;2416520;56;20994;-74
2020/12/16 11:12:38;;;;;;;8.38;5.45;;;13.40;76.40;;;;;;2418626;56;20974;-74
2020/12/16 11:15:05;;;;;;;8.52;5.55;;;13.40;76.60;;;;;;2233670;56;20955;-74
2020/12/16 11:17:34;;;;;;;7.60;5.85;;;13.50;77.40;;;;;;2440881;55;20950;-75
2020/12/16 11:20:04;;;;;;;7.62;5.35;;;13.60;78.30;;;;;;2442681;55;20943;-75
2020/12/16 11:22:39;;;;;;;8.68;6.05;;;13.80;79.60;;;;;;2418186;56;20929;-74
2020/12/16 11:25:07;;;;;;;8.07;5.35;;;14.00;80.00;;;;;;2414274;56;21000;-74
2020/12/16 11:27:37;;;;;;;7.72;5.25;;;14.20;79.60;;;;;;2439790;55;20991;-74
2020/12/16 11:30:03;;;;;;;6.70;5.10;;;14.40;78.90;;;;;;2448912;55;21471;-74
2020/12/16 11:32:34;;;;;;;8.50;5.22;;;14.50;78.10;;;;;;2440429;55;20962;-74
2020/12/16 11:35:00;;;;;;;7.87;5.30;;;14.60;77.40;;;;;;2445453;55;21067;-74
2020/12/16 11:37:28;;;;;;;7.80;4.97;;;14.70;77.00;;;;;;2442874;54;21038;-74
2020/12/16 11:39:57;;;;;;;8.38;4.60;;;14.70;76.40;;;;;;2232599;55;21035;-74
2020/12/16 11:42:25;;;;;;;6.35;4.45;;;14.80;76.10;;;;;;2439733;55;20980;-74
2020/12/16 11:44:53;;;;;;;6.78;4.85;;;14.80;75.70;;;;;;2441349;55;21601;-75
2020/12/16 11:47:20;;;;;;;6.95;4.65;;;14.80;75.60;;;;;;2224195;56;21025;-75
2020/12/16 11:49:47;;;;;;;7.20;4.90;;;14.80;75.40;;;;;;2459689;55;21556;-74
2020/12/16 11:52:15;;;;;;;6.37;4.45;;;14.90;75.80;;;;;;2459365;55;21016;-74
2020/12/16 11:54:43;;;;;;;7.25;4.68;;;14.90;75.90;;;;;;2221512;56;21494;-74
2020/12/16 11:57:11;;;;;;;6.40;4.70;;;14.90;75.90;;;;;;2231916;56;20961;-74
2020/12/16 11:59:39;;;;;;;6.68;4.90;;;14.90;75.80;;;;;;2229410;55;20939;-74
2020/12/16 12:02:07;;;;;;;7.47;5.00;;;15.00;76.50;;;;;;2445194;55;20952;-75
2020/12/16 12:04:35;;;;;;;7.62;4.72;;;15.10;77.10;;;;;;2439989;56;21430;-74
2020/12/16 12:07:04;;;;;;;6.28;4.65;;;15.30;77.70;;;;;;2440197;55;21059;-75
2020/12/16 12:09:36;;;;;;;7.07;4.97;;;15.40;77.60;;;;;;2449700;55;21014;-75
2020/12/16 12:12:05;;;;;;;7.43;4.90;;;15.50;76.50;;;;;;2434546;55;20995;-74
2020/12/16 12:14:32;;;;;;;6.25;4.07;;;15.60;75.70;;;;;;2436350;55;20986;-74
2020/12/16 12:16:58;;;;;;;7.12;4.20;;;15.60;75.00;;;;;;2453720;55;21428;-74
2020/12/16 12:19:26;;;;;;;7.45;4.40;;;15.60;75.00;;;;;;2226535;56;21027;-74
2020/12/16 12:21:56;;;;;;;7.37;4.93;;;15.60;75.40;;;;;;2434721;55;20994;-74
2020/12/16 12:24:22;;;;;;;7.37;4.78;;;15.70;75.70;;;;;;2442416;55;20988;-74
2020/12/16 12:26:50;;;;;;;6.60;4.68;;;15.80;75.90;;;;;;2236198;56;21029;-74
2020/12/16 12:29:20;;;;;;;6.82;4.53;;;15.90;76.10;;;;;;2456410;56;20995;-73
2020/12/16 12:31:47;;;;;;;7.20;4.45;;;15.90;75.90;;;;;;2415640;56;20942;-74
2020/12/16 12:34:13;;;;;;;8.18;4.72;;;16.00;75.80;;;;;;2452718;55;22201;-74
2020/12/16 12:36:42;;;;;;;6.40;4.37;;;16.10;75.50;;;;;;2446057;55;21947;-74
2020/12/16 12:39:12;;;;;;;8.13;5.05;;;16.10;74.70;;;;;;2238474;56;21471;-74
2020/12/16 12:41:40;;;;;;;9.05;5.80;;;16.10;74.10;;;;;;2224430;55;21101;-74
2020/12/16 12:44:06;;;;;;;6.57;4.35;;;16.10;73.30;;;;;;2444330;55;20959;-74
2020/12/16 12:46:33;;;;;;;6.45;4.32;;;16.10;72.90;;;;;;2231587;56;21074;-74
2020/12/16 12:49:00;;;;;;;7.75;5.20;;;16.10;72.70;;;;;;2236441;56;20964;-74
2020/12/16 12:51:28;;;;;;;6.37;4.50;;;16.00;72.30;;;;;;2236383;56;21032;-74
2020/12/16 12:53:56;;;;;;;8.18;5.37;;;15.90;72.10;;;;;;2459546;56;20945;-73
2020/12/16 12:56:23;;;;;;;7.30;5.30;;;15.90;72.30;;;;;;2459648;56;21472;-74
2020/12/16 12:58:52;;;;;;;8.15;5.70;;;15.80;72.60;;;;;;2225909;56;21625;-74
2020/12/16 13:01:18;;;;;;;7.45;5.12;;;15.90;72.80;;;;;;2447380;56;20999;-74
2020/12/16 13:03:47;;;;;;;6.70;4.57;;;15.80;72.80;;;;;;2455405;55;20992;-74
2020/12/16 13:06:14;;;;;;;7.97;5.15;;;15.70;72.80;;;;;;2228087;55;21022;-74
2020/12/16 13:08:40;;;;;;;8.88;5.65;;;15.70;72.90;;;;;;2226825;55;21561;-74
2020/12/16 13:11:07;;;;;;;8.73;5.82;;;15.70;73.20;;;;;;2224167;56;21002;-74